sensor_id;sensor_type;location;lat;lon;timestamp;P1;durP1;ratioP1;P2;durP2;ratioP2
13660;SDS011;6903;49.480;11.102;2023-04-03T00:01:56;3.80;;;2.10;;
13660;SDS011;6903;49.480;11.102;2023-04-03T00:04:21;2.87;;;1.90;;
13660;SDS011;6903;49.480;11.102;2023-04-03T00:06:47;2.83;;;2.30;;
13660;SDS011;6903;49.480;11.102;2023-04-03T00:09:12;5.00;;;2.50;;
13660;SDS011;6903;49.480;11.102;2023-04-03T00:11:37;2.90;;;1.93;;
13660;SDS011;6903;49.480;11.102;2023-04-03T00:14:02;3.07;;;2.13;;
13660;SDS011;6903;49.480;11.102;2023-04-03T00:16:28;2.70;;;2.10;;
13660;SDS011;6903;49.480;11.102;2023-04-03T00:18:53;2.27;;;1.93;;
13660;SDS011;6903;49.480;11.102;2023-04-03T00:21:18;3.73;;;2.07;;
13660;SDS011;6903;49.480;11.102;2023-04-03T00:23:44;2.83;;;2.07;;
13660;SDS011;6903;49.480;11.102;2023-04-03T00:26:09;3.10;;;2.20;;
13660;SDS011;6903;49.480;11.102;2023-04-03T00:28:34;2.37;;;2.10;;
13660;SDS011;6903;49.480;11.102;2023-04-03T00:31:00;3.23;;;2.20;;
13660;SDS011;6903;49.480;11.102;2023-04-03T00:33:25;3.33;;;2.00;;
13660;SDS011;6903;49.480;11.102;2023-04-03T00:35:50;2.43;;;2.23;;
13660;SDS011;6903;49.480;11.102;2023-04-03T00:38:15;3.43;;;2.60;;
13660;SDS011;6903;49.480;11.102;2023-04-03T00:40:43;3.27;;;2.10;;
13660;SDS011;6903;49.480;11.102;2023-04-03T00:43:19;2.63;;;2.17;;
13660;SDS011;6903;49.480;11.102;2023-04-03T00:45:47;2.37;;;2.10;;
13660;SDS011;6903;49.480;11.102;2023-04-03T00:48:16;2.47;;;2.27;;
13660;SDS011;6903;49.480;11.102;2023-04-03T00:50:46;2.30;;;2.10;;
13660;SDS011;6903;49.480;11.102;2023-04-03T00:53:13;2.40;;;2.03;;
13660;SDS011;6903;49.480;11.102;2023-04-03T00:55:41;2.57;;;2.30;;
13660;SDS011;6903;49.480;11.102;2023-04-03T00:58:08;2.53;;;2.33;;
13660;SDS011;6903;49.480;11.102;2023-04-03T01:00:35;2.97;;;2.20;;
13660;SDS011;6903;49.480;11.102;2023-04-03T01:03:05;2.33;;;2.13;;
13660;SDS011;6903;49.480;11.102;2023-04-03T01:05:30;2.67;;;2.20;;
13660;SDS011;6903;49.480;11.102;2023-04-03T01:07:56;2.47;;;2.20;;
13660;SDS011;6903;49.480;11.102;2023-04-03T01:10:22;3.37;;;2.13;;
13660;SDS011;6903;49.480;11.102;2023-04-03T01:12:48;2.77;;;2.53;;
13660;SDS011;6903;49.480;11.102;2023-04-03T01:15:22;2.20;;;1.80;;
13660;SDS011;6903;49.480;11.102;2023-04-03T01:17:51;3.17;;;2.27;;
13660;SDS011;6903;49.480;11.102;2023-04-03T01:25:32;2.43;;;2.10;;
13660;SDS011;6903;49.480;11.102;2023-04-03T01:27:58;2.30;;;2.10;;
13660;SDS011;6903;49.480;11.102;2023-04-03T01:30:25;2.43;;;2.23;;
13660;SDS011;6903;49.480;11.102;2023-04-03T01:32:55;2.57;;;2.37;;
13660;SDS011;6903;49.480;11.102;2023-04-03T01:35:21;2.60;;;2.33;;
13660;SDS011;6903;49.480;11.102;2023-04-03T01:37:46;3.60;;;2.20;;
13660;SDS011;6903;49.480;11.102;2023-04-03T01:40:11;2.20;;;1.93;;
13660;SDS011;6903;49.480;11.102;2023-04-03T01:42:37;3.77;;;2.57;;
13660;SDS011;6903;49.480;11.102;2023-04-03T01:45:02;3.20;;;2.27;;
13660;SDS011;6903;49.480;11.102;2023-04-03T01:47:27;2.80;;;2.50;;
13660;SDS011;6903;49.480;11.102;2023-04-03T01:49:52;2.93;;;2.13;;
13660;SDS011;6903;49.480;11.102;2023-04-03T01:52:17;2.60;;;2.30;;
13660;SDS011;6903;49.480;11.102;2023-04-03T01:54:43;3.17;;;2.23;;
13660;SDS011;6903;49.480;11.102;2023-04-03T01:57:08;2.70;;;2.27;;
13660;SDS011;6903;49.480;11.102;2023-04-03T01:59:33;3.10;;;2.23;;
13660;SDS011;6903;49.480;11.102;2023-04-03T02:01:59;3.27;;;2.43;;
13660;SDS011;6903;49.480;11.102;2023-04-03T02:04:24;3.90;;;2.43;;
13660;SDS011;6903;49.480;11.102;2023-04-03T02:06:50;3.80;;;2.53;;
13660;SDS011;6903;49.480;11.102;2023-04-03T02:09:15;2.17;;;1.97;;
13660;SDS011;6903;49.480;11.102;2023-04-03T02:11:40;2.77;;;2.30;;
13660;SDS011;6903;49.480;11.102;2023-04-03T02:14:05;2.63;;;2.37;;
13660;SDS011;6903;49.480;11.102;2023-04-03T02:16:31;2.43;;;2.10;;
13660;SDS011;6903;49.480;11.102;2023-04-03T02:18:56;3.10;;;2.60;;
13660;SDS011;6903;49.480;11.102;2023-04-03T02:21:21;2.63;;;2.40;;
13660;SDS011;6903;49.480;11.102;2023-04-03T02:23:46;2.90;;;2.57;;
13660;SDS011;6903;49.480;11.102;2023-04-03T02:26:13;3.13;;;2.40;;
13660;SDS011;6903;49.480;11.102;2023-04-03T02:28:39;2.70;;;2.37;;
13660;SDS011;6903;49.480;11.102;2023-04-03T02:31:06;2.77;;;2.47;;
13660;SDS011;6903;49.480;11.102;2023-04-03T02:33:32;3.20;;;2.60;;
13660;SDS011;6903;49.480;11.102;2023-04-03T02:35:58;3.77;;;2.77;;
13660;SDS011;6903;49.480;11.102;2023-04-03T02:38:24;2.90;;;2.53;;
13660;SDS011;6903;49.480;11.102;2023-04-03T02:40:50;3.70;;;2.33;;
13660;SDS011;6903;49.480;11.102;2023-04-03T02:43:16;2.60;;;2.40;;
13660;SDS011;6903;49.480;11.102;2023-04-03T02:45:41;2.60;;;2.40;;
13660;SDS011;6903;49.480;11.102;2023-04-03T02:48:06;3.23;;;2.70;;
13660;SDS011;6903;49.480;11.102;2023-04-03T02:50:31;2.80;;;2.50;;
13660;SDS011;6903;49.480;11.102;2023-04-03T02:52:56;4.37;;;2.70;;
13660;SDS011;6903;49.480;11.102;2023-04-03T02:55:22;3.17;;;2.47;;
13660;SDS011;6903;49.480;11.102;2023-04-03T02:57:47;3.87;;;2.90;;
13660;SDS011;6903;49.480;11.102;2023-04-03T03:00:12;3.83;;;2.90;;
13660;SDS011;6903;49.480;11.102;2023-04-03T03:02:38;3.47;;;2.57;;
13660;SDS011;6903;49.480;11.102;2023-04-03T03:05:03;3.57;;;2.80;;
13660;SDS011;6903;49.480;11.102;2023-04-03T03:07:29;3.37;;;2.93;;
13660;SDS011;6903;49.480;11.102;2023-04-03T03:09:54;4.13;;;3.20;;
13660;SDS011;6903;49.480;11.102;2023-04-03T03:12:19;3.17;;;2.87;;
13660;SDS011;6903;49.480;11.102;2023-04-03T03:14:47;4.97;;;3.10;;
13660;SDS011;6903;49.480;11.102;2023-04-03T03:17:13;5.47;;;3.33;;
13660;SDS011;6903;49.480;11.102;2023-04-03T03:19:38;4.80;;;3.20;;
13660;SDS011;6903;49.480;11.102;2023-04-03T03:22:03;4.00;;;3.43;;
13660;SDS011;6903;49.480;11.102;2023-04-03T03:24:28;5.13;;;3.20;;
13660;SDS011;6903;49.480;11.102;2023-04-03T03:26:53;4.13;;;3.67;;
13660;SDS011;6903;49.480;11.102;2023-04-03T03:29:19;4.57;;;3.30;;
13660;SDS011;6903;49.480;11.102;2023-04-03T03:31:44;5.67;;;3.47;;
13660;SDS011;6903;49.480;11.102;2023-04-03T03:34:10;3.67;;;3.30;;
13660;SDS011;6903;49.480;11.102;2023-04-03T03:36:35;5.83;;;3.80;;
13660;SDS011;6903;49.480;11.102;2023-04-03T03:39:01;5.57;;;3.43;;
13660;SDS011;6903;49.480;11.102;2023-04-03T03:41:26;4.20;;;3.60;;
13660;SDS011;6903;49.480;11.102;2023-04-03T03:43:51;4.27;;;3.57;;
13660;SDS011;6903;49.480;11.102;2023-04-03T03:46:17;6.23;;;4.53;;
13660;SDS011;6903;49.480;11.102;2023-04-03T03:48:42;4.20;;;3.73;;
13660;SDS011;6903;49.480;11.102;2023-04-03T03:51:07;4.20;;;3.40;;
13660;SDS011;6903;49.480;11.102;2023-04-03T03:53:32;4.27;;;3.53;;
13660;SDS011;6903;49.480;11.102;2023-04-03T03:55:58;5.63;;;3.90;;
13660;SDS011;6903;49.480;11.102;2023-04-03T03:58:23;6.23;;;4.17;;
13660;SDS011;6903;49.480;11.102;2023-04-03T04:00:48;8.37;;;4.67;;
13660;SDS011;6903;49.480;11.102;2023-04-03T04:03:13;7.87;;;5.03;;
13660;SDS011;6903;49.480;11.102;2023-04-03T04:05:39;7.70;;;5.23;;
13660;SDS011;6903;49.480;11.102;2023-04-03T04:08:04;9.40;;;5.17;;
13660;SDS011;6903;49.480;11.102;2023-04-03T04:10:29;8.73;;;5.47;;
13660;SDS011;6903;49.480;11.102;2023-04-03T04:12:54;9.20;;;5.63;;
13660;SDS011;6903;49.480;11.102;2023-04-03T04:15:20;8.93;;;5.23;;
13660;SDS011;6903;49.480;11.102;2023-04-03T04:17:46;9.20;;;5.40;;
13660;SDS011;6903;49.480;11.102;2023-04-03T04:20:12;7.83;;;4.73;;
13660;SDS011;6903;49.480;11.102;2023-04-03T04:22:37;6.93;;;4.70;;
13660;SDS011;6903;49.480;11.102;2023-04-03T04:25:03;5.67;;;3.00;;
13660;SDS011;6903;49.480;11.102;2023-04-03T04:27:29;6.73;;;4.73;;
13660;SDS011;6903;49.480;11.102;2023-04-03T04:29:54;11.40;;;6.00;;
13660;SDS011;6903;49.480;11.102;2023-04-03T04:32:20;6.83;;;5.00;;
13660;SDS011;6903;49.480;11.102;2023-04-03T04:34:45;8.87;;;4.73;;
13660;SDS011;6903;49.480;11.102;2023-04-03T04:37:10;6.33;;;3.90;;
13660;SDS011;6903;49.480;11.102;2023-04-03T04:39:35;6.47;;;4.23;;
13660;SDS011;6903;49.480;11.102;2023-04-03T04:42:00;6.57;;;4.50;;
13660;SDS011;6903;49.480;11.102;2023-04-03T04:44:26;6.90;;;4.43;;
13660;SDS011;6903;49.480;11.102;2023-04-03T04:46:51;6.83;;;4.00;;
13660;SDS011;6903;49.480;11.102;2023-04-03T04:49:16;6.17;;;3.77;;
13660;SDS011;6903;49.480;11.102;2023-04-03T04:51:41;5.20;;;4.10;;
13660;SDS011;6903;49.480;11.102;2023-04-03T04:54:06;10.40;;;4.53;;
13660;SDS011;6903;49.480;11.102;2023-04-03T04:56:32;5.23;;;4.50;;
13660;SDS011;6903;49.480;11.102;2023-04-03T04:58:57;7.37;;;5.07;;
13660;SDS011;6903;49.480;11.102;2023-04-03T05:01:22;7.73;;;4.30;;
13660;SDS011;6903;49.480;11.102;2023-04-03T05:03:47;9.03;;;4.23;;
13660;SDS011;6903;49.480;11.102;2023-04-03T05:06:13;7.47;;;4.07;;
13660;SDS011;6903;49.480;11.102;2023-04-03T05:08:38;6.47;;;3.90;;
13660;SDS011;6903;49.480;11.102;2023-04-03T05:11:03;6.60;;;4.57;;
13660;SDS011;6903;49.480;11.102;2023-04-03T05:13:28;6.80;;;4.30;;
13660;SDS011;6903;49.480;11.102;2023-04-03T05:15:54;7.50;;;4.33;;
13660;SDS011;6903;49.480;11.102;2023-04-03T05:18:19;5.83;;;4.17;;
13660;SDS011;6903;49.480;11.102;2023-04-03T05:20:44;5.27;;;4.37;;
13660;SDS011;6903;49.480;11.102;2023-04-03T05:23:10;9.23;;;4.13;;
13660;SDS011;6903;49.480;11.102;2023-04-03T05:25:39;6.73;;;4.50;;
13660;SDS011;6903;49.480;11.102;2023-04-03T05:28:04;4.90;;;3.83;;
13660;SDS011;6903;49.480;11.102;2023-04-03T05:30:30;6.30;;;3.80;;
13660;SDS011;6903;49.480;11.102;2023-04-03T05:32:55;5.93;;;3.70;;
13660;SDS011;6903;49.480;11.102;2023-04-03T05:35:20;6.27;;;4.27;;
13660;SDS011;6903;49.480;11.102;2023-04-03T05:37:45;5.67;;;3.80;;
13660;SDS011;6903;49.480;11.102;2023-04-03T05:40:11;8.07;;;4.10;;
13660;SDS011;6903;49.480;11.102;2023-04-03T05:42:36;7.40;;;3.70;;
13660;SDS011;6903;49.480;11.102;2023-04-03T05:45:02;6.20;;;3.80;;
13660;SDS011;6903;49.480;11.102;2023-04-03T05:47:27;5.80;;;3.67;;
13660;SDS011;6903;49.480;11.102;2023-04-03T05:49:52;3.40;;;3.10;;
13660;SDS011;6903;49.480;11.102;2023-04-03T05:52:22;6.07;;;3.73;;
13660;SDS011;6903;49.480;11.102;2023-04-03T05:54:48;6.33;;;3.57;;
13660;SDS011;6903;49.480;11.102;2023-04-03T05:57:14;5.17;;;3.20;;
13660;SDS011;6903;49.480;11.102;2023-04-03T05:59:40;4.63;;;3.00;;
13660;SDS011;6903;49.480;11.102;2023-04-03T06:02:06;6.63;;;3.07;;
13660;SDS011;6903;49.480;11.102;2023-04-03T06:04:31;5.07;;;3.40;;
13660;SDS011;6903;49.480;11.102;2023-04-03T06:06:57;7.07;;;3.07;;
13660;SDS011;6903;49.480;11.102;2023-04-03T06:09:23;6.37;;;3.23;;
13660;SDS011;6903;49.480;11.102;2023-04-03T06:11:49;4.40;;;2.60;;
13660;SDS011;6903;49.480;11.102;2023-04-03T06:14:14;3.63;;;2.70;;
13660;SDS011;6903;49.480;11.102;2023-04-03T06:16:40;5.20;;;3.03;;
13660;SDS011;6903;49.480;11.102;2023-04-03T06:19:06;4.50;;;2.83;;
13660;SDS011;6903;49.480;11.102;2023-04-03T06:21:32;3.77;;;3.03;;
13660;SDS011;6903;49.480;11.102;2023-04-03T06:23:58;6.40;;;2.87;;
13660;SDS011;6903;49.480;11.102;2023-04-03T06:26:23;4.67;;;2.80;;
13660;SDS011;6903;49.480;11.102;2023-04-03T06:28:48;3.27;;;2.60;;
13660;SDS011;6903;49.480;11.102;2023-04-03T06:31:13;4.27;;;2.50;;
13660;SDS011;6903;49.480;11.102;2023-04-03T06:33:38;4.77;;;2.00;;
13660;SDS011;6903;49.480;11.102;2023-04-03T06:36:04;3.50;;;2.60;;
13660;SDS011;6903;49.480;11.102;2023-04-03T06:38:31;3.90;;;2.93;;
13660;SDS011;6903;49.480;11.102;2023-04-03T06:40:57;5.90;;;2.83;;
13660;SDS011;6903;49.480;11.102;2023-04-03T06:43:22;5.67;;;3.20;;
13660;SDS011;6903;49.480;11.102;2023-04-03T06:45:47;3.80;;;2.70;;
13660;SDS011;6903;49.480;11.102;2023-04-03T06:48:13;2.80;;;2.50;;
13660;SDS011;6903;49.480;11.102;2023-04-03T06:50:38;2.73;;;2.30;;
13660;SDS011;6903;49.480;11.102;2023-04-03T06:53:04;5.50;;;3.20;;
13660;SDS011;6903;49.480;11.102;2023-04-03T06:55:29;4.17;;;2.97;;
13660;SDS011;6903;49.480;11.102;2023-04-03T06:57:54;4.37;;;2.90;;
13660;SDS011;6903;49.480;11.102;2023-04-03T07:00:20;4.73;;;3.20;;
13660;SDS011;6903;49.480;11.102;2023-04-03T07:02:45;4.07;;;2.80;;
13660;SDS011;6903;49.480;11.102;2023-04-03T07:05:11;6.27;;;2.97;;
13660;SDS011;6903;49.480;11.102;2023-04-03T07:07:36;4.50;;;2.33;;
13660;SDS011;6903;49.480;11.102;2023-04-03T07:10:02;3.47;;;2.70;;
13660;SDS011;6903;49.480;11.102;2023-04-03T07:12:28;2.93;;;2.57;;
13660;SDS011;6903;49.480;11.102;2023-04-03T07:14:53;5.10;;;3.13;;
13660;SDS011;6903;49.480;11.102;2023-04-03T07:17:18;6.33;;;3.23;;
13660;SDS011;6903;49.480;11.102;2023-04-03T07:19:43;2.93;;;2.63;;
13660;SDS011;6903;49.480;11.102;2023-04-03T07:22:09;5.53;;;3.10;;
13660;SDS011;6903;49.480;11.102;2023-04-03T07:24:36;3.70;;;3.13;;
13660;SDS011;6903;49.480;11.102;2023-04-03T07:27:01;5.83;;;3.40;;
13660;SDS011;6903;49.480;11.102;2023-04-03T07:29:27;2.87;;;2.43;;
13660;SDS011;6903;49.480;11.102;2023-04-03T07:31:52;3.87;;;2.30;;
13660;SDS011;6903;49.480;11.102;2023-04-03T07:34:18;4.53;;;2.80;;
13660;SDS011;6903;49.480;11.102;2023-04-03T07:36:43;4.80;;;2.40;;
13660;SDS011;6903;49.480;11.102;2023-04-03T07:39:08;4.60;;;2.90;;
13660;SDS011;6903;49.480;11.102;2023-04-03T07:41:34;4.80;;;2.77;;
13660;SDS011;6903;49.480;11.102;2023-04-03T07:43:59;5.70;;;3.07;;
13660;SDS011;6903;49.480;11.102;2023-04-03T07:46:24;6.50;;;3.70;;
13660;SDS011;6903;49.480;11.102;2023-04-03T07:48:50;5.83;;;3.30;;
13660;SDS011;6903;49.480;11.102;2023-04-03T07:51:16;4.13;;;3.13;;
13660;SDS011;6903;49.480;11.102;2023-04-03T07:53:41;4.20;;;2.50;;
13660;SDS011;6903;49.480;11.102;2023-04-03T07:56:07;4.07;;;2.80;;
13660;SDS011;6903;49.480;11.102;2023-04-03T07:58:33;5.17;;;2.93;;
13660;SDS011;6903;49.480;11.102;2023-04-03T08:00:59;6.30;;;3.00;;
13660;SDS011;6903;49.480;11.102;2023-04-03T08:03:24;6.43;;;3.00;;
13660;SDS011;6903;49.480;11.102;2023-04-03T08:05:50;3.83;;;3.00;;
13660;SDS011;6903;49.480;11.102;2023-04-03T08:08:17;4.93;;;2.83;;
13660;SDS011;6903;49.480;11.102;2023-04-03T08:10:47;5.07;;;2.73;;
13660;SDS011;6903;49.480;11.102;2023-04-03T08:13:14;5.37;;;2.70;;
13660;SDS011;6903;49.480;11.102;2023-04-03T08:15:40;4.80;;;2.50;;
13660;SDS011;6903;49.480;11.102;2023-04-03T08:18:05;7.33;;;2.60;;
13660;SDS011;6903;49.480;11.102;2023-04-03T08:20:30;4.30;;;2.63;;
13660;SDS011;6903;49.480;11.102;2023-04-03T08:22:55;6.53;;;2.97;;
13660;SDS011;6903;49.480;11.102;2023-04-03T08:25:21;3.77;;;2.50;;
13660;SDS011;6903;49.480;11.102;2023-04-03T08:27:47;6.73;;;2.43;;
13660;SDS011;6903;49.480;11.102;2023-04-03T08:30:12;3.93;;;2.40;;
13660;SDS011;6903;49.480;11.102;2023-04-03T08:32:38;3.67;;;2.13;;
13660;SDS011;6903;49.480;11.102;2023-04-03T08:35:04;3.10;;;2.60;;
13660;SDS011;6903;49.480;11.102;2023-04-03T08:37:30;3.73;;;2.37;;
13660;SDS011;6903;49.480;11.102;2023-04-03T08:39:55;3.07;;;1.87;;
13660;SDS011;6903;49.480;11.102;2023-04-03T08:42:41;2.77;;;2.00;;
13660;SDS011;6903;49.480;11.102;2023-04-03T08:45:13;4.23;;;2.23;;
13660;SDS011;6903;49.480;11.102;2023-04-03T08:50:33;3.27;;;2.20;;
13660;SDS011;6903;49.480;11.102;2023-04-03T08:53:04;2.40;;;2.00;;
13660;SDS011;6903;49.480;11.102;2023-04-03T08:55:42;2.80;;;2.30;;
13660;SDS011;6903;49.480;11.102;2023-04-03T08:58:21;2.03;;;1.67;;
13660;SDS011;6903;49.480;11.102;2023-04-03T09:03:32;3.60;;;2.27;;
13660;SDS011;6903;49.480;11.102;2023-04-03T09:06:00;2.90;;;2.57;;
13660;SDS011;6903;49.480;11.102;2023-04-03T09:08:31;5.87;;;2.57;;
13660;SDS011;6903;49.480;11.102;2023-04-03T09:14:30;3.50;;;2.10;;
13660;SDS011;6903;49.480;11.102;2023-04-03T09:22:50;4.40;;;2.10;;
13660;SDS011;6903;49.480;11.102;2023-04-03T09:25:22;2.27;;;1.77;;
13660;SDS011;6903;49.480;11.102;2023-04-03T09:27:50;2.80;;;2.10;;
13660;SDS011;6903;49.480;11.102;2023-04-03T09:30:20;4.37;;;2.73;;
13660;SDS011;6903;49.480;11.102;2023-04-03T09:32:48;2.67;;;2.00;;
13660;SDS011;6903;49.480;11.102;2023-04-03T09:40:40;2.33;;;1.97;;
13660;SDS011;6903;49.480;11.102;2023-04-03T09:43:29;3.03;;;1.90;;
13660;SDS011;6903;49.480;11.102;2023-04-03T09:45:57;2.77;;;1.60;;
13660;SDS011;6903;49.480;11.102;2023-04-03T09:48:58;2.43;;;1.63;;
13660;SDS011;6903;49.480;11.102;2023-04-03T09:51:28;3.50;;;2.07;;
13660;SDS011;6903;49.480;11.102;2023-04-03T09:53:54;3.20;;;1.83;;
13660;SDS011;6903;49.480;11.102;2023-04-03T09:56:27;4.90;;;1.97;;
13660;SDS011;6903;49.480;11.102;2023-04-03T10:01:32;1.80;;;1.70;;
13660;SDS011;6903;49.480;11.102;2023-04-03T10:04:17;3.40;;;2.00;;
13660;SDS011;6903;49.480;11.102;2023-04-03T10:06:51;4.00;;;1.60;;
13660;SDS011;6903;49.480;11.102;2023-04-03T10:09:19;3.60;;;2.00;;
13660;SDS011;6903;49.480;11.102;2023-04-03T10:11:57;2.47;;;2.00;;
13660;SDS011;6903;49.480;11.102;2023-04-03T10:14:24;4.17;;;2.00;;
13660;SDS011;6903;49.480;11.102;2023-04-03T10:17:14;3.10;;;2.07;;
13660;SDS011;6903;49.480;11.102;2023-04-03T10:19:55;3.77;;;1.90;;
13660;SDS011;6903;49.480;11.102;2023-04-03T10:25:00;3.30;;;1.90;;
13660;SDS011;6903;49.480;11.102;2023-04-03T10:30:19;2.97;;;2.27;;
13660;SDS011;6903;49.480;11.102;2023-04-03T10:38:43;2.60;;;1.50;;
13660;SDS011;6903;49.480;11.102;2023-04-03T10:46:27;2.60;;;1.67;;
13660;SDS011;6903;49.480;11.102;2023-04-03T10:51:47;2.57;;;1.60;;
13660;SDS011;6903;49.480;11.102;2023-04-03T10:54:20;5.63;;;2.30;;
13660;SDS011;6903;49.480;11.102;2023-04-03T10:56:51;2.03;;;1.87;;
13660;SDS011;6903;49.480;11.102;2023-04-03T10:59:23;2.00;;;1.67;;
13660;SDS011;6903;49.480;11.102;2023-04-03T11:01:54;3.53;;;1.87;;
13660;SDS011;6903;49.480;11.102;2023-04-03T11:04:21;3.93;;;1.97;;
13660;SDS011;6903;49.480;11.102;2023-04-03T11:06:53;3.20;;;2.00;;
13660;SDS011;6903;49.480;11.102;2023-04-03T11:09:26;2.57;;;1.50;;
13660;SDS011;6903;49.480;11.102;2023-04-03T11:11:55;2.73;;;1.90;;
13660;SDS011;6903;49.480;11.102;2023-04-03T11:14:34;2.70;;;1.53;;
13660;SDS011;6903;49.480;11.102;2023-04-03T11:17:04;2.57;;;1.73;;
13660;SDS011;6903;49.480;11.102;2023-04-03T11:19:41;2.07;;;1.73;;
13660;SDS011;6903;49.480;11.102;2023-04-03T11:27:44;2.73;;;2.00;;
13660;SDS011;6903;49.480;11.102;2023-04-03T11:30:24;2.10;;;1.70;;
13660;SDS011;6903;49.480;11.102;2023-04-03T11:33:02;1.93;;;1.73;;
13660;SDS011;6903;49.480;11.102;2023-04-03T11:35:37;2.17;;;1.70;;
13660;SDS011;6903;49.480;11.102;2023-04-03T11:38:10;3.43;;;1.83;;
13660;SDS011;6903;49.480;11.102;2023-04-03T11:40:43;2.80;;;1.83;;
13660;SDS011;6903;49.480;11.102;2023-04-03T11:43:25;1.50;;;1.37;;
13660;SDS011;6903;49.480;11.102;2023-04-03T11:45:56;3.00;;;1.90;;
13660;SDS011;6903;49.480;11.102;2023-04-03T11:50:56;2.23;;;1.83;;
13660;SDS011;6903;49.480;11.102;2023-04-03T11:53:37;3.00;;;1.80;;
13660;SDS011;6903;49.480;11.102;2023-04-03T12:01:46;2.23;;;1.63;;
13660;SDS011;6903;49.480;11.102;2023-04-03T12:04:18;2.83;;;1.90;;
13660;SDS011;6903;49.480;11.102;2023-04-03T12:06:50;3.60;;;1.93;;
13660;SDS011;6903;49.480;11.102;2023-04-03T12:12:30;2.10;;;1.90;;
13660;SDS011;6903;49.480;11.102;2023-04-03T12:17:47;4.03;;;1.80;;
13660;SDS011;6903;49.480;11.102;2023-04-03T12:20:45;2.00;;;1.70;;
13660;SDS011;6903;49.480;11.102;2023-04-03T12:23:27;4.63;;;2.00;;
13660;SDS011;6903;49.480;11.102;2023-04-03T12:26:20;4.30;;;2.07;;
13660;SDS011;6903;49.480;11.102;2023-04-03T12:28:51;3.90;;;1.40;;
13660;SDS011;6903;49.480;11.102;2023-04-03T12:31:18;2.53;;;1.53;;
13660;SDS011;6903;49.480;11.102;2023-04-03T12:33:49;1.93;;;1.50;;
13660;SDS011;6903;49.480;11.102;2023-04-03T12:36:26;3.27;;;1.60;;
13660;SDS011;6903;49.480;11.102;2023-04-03T12:39:33;1.93;;;1.50;;
13660;SDS011;6903;49.480;11.102;2023-04-03T12:47:23;2.20;;;1.60;;
13660;SDS011;6903;49.480;11.102;2023-04-03T12:49:53;2.00;;;1.60;;
13660;SDS011;6903;49.480;11.102;2023-04-03T12:52:29;2.27;;;1.63;;
13660;SDS011;6903;49.480;11.102;2023-04-03T12:54:58;2.50;;;1.57;;
13660;SDS011;6903;49.480;11.102;2023-04-03T12:57:28;1.73;;;1.53;;
13660;SDS011;6903;49.480;11.102;2023-04-03T12:59:54;4.40;;;1.50;;
13660;SDS011;6903;49.480;11.102;2023-04-03T13:02:24;3.60;;;1.90;;
13660;SDS011;6903;49.480;11.102;2023-04-03T13:04:55;3.10;;;1.63;;
13660;SDS011;6903;49.480;11.102;2023-04-03T13:07:24;4.47;;;2.00;;
13660;SDS011;6903;49.480;11.102;2023-04-03T13:09:58;2.10;;;1.90;;
13660;SDS011;6903;49.480;11.102;2023-04-03T13:12:25;3.63;;;1.80;;
13660;SDS011;6903;49.480;11.102;2023-04-03T13:14:52;4.23;;;2.10;;
13660;SDS011;6903;49.480;11.102;2023-04-03T13:17:19;3.23;;;1.90;;
13660;SDS011;6903;49.480;11.102;2023-04-03T13:19:46;3.03;;;1.60;;
13660;SDS011;6903;49.480;11.102;2023-04-03T13:25:04;2.47;;;1.70;;
13660;SDS011;6903;49.480;11.102;2023-04-03T13:27:34;2.70;;;1.70;;
13660;SDS011;6903;49.480;11.102;2023-04-03T13:30:01;1.90;;;1.53;;
13660;SDS011;6903;49.480;11.102;2023-04-03T13:32:28;2.03;;;1.70;;
13660;SDS011;6903;49.480;11.102;2023-04-03T13:34:55;3.70;;;1.70;;
13660;SDS011;6903;49.480;11.102;2023-04-03T13:39:58;3.83;;;1.87;;
13660;SDS011;6903;49.480;11.102;2023-04-03T13:42:33;2.80;;;1.93;;
13660;SDS011;6903;49.480;11.102;2023-04-03T13:47:49;2.00;;;1.60;;
13660;SDS011;6903;49.480;11.102;2023-04-03T13:50:18;2.07;;;1.87;;
13660;SDS011;6903;49.480;11.102;2023-04-03T13:53:00;3.80;;;1.63;;
13660;SDS011;6903;49.480;11.102;2023-04-03T13:55:32;2.53;;;1.67;;
13660;SDS011;6903;49.480;11.102;2023-04-03T13:58:01;2.53;;;1.80;;
13660;SDS011;6903;49.480;11.102;2023-04-03T14:03:32;2.67;;;1.80;;
13660;SDS011;6903;49.480;11.102;2023-04-03T14:06:05;2.10;;;1.80;;
13660;SDS011;6903;49.480;11.102;2023-04-03T14:08:32;1.90;;;1.50;;
13660;SDS011;6903;49.480;11.102;2023-04-03T14:10:57;2.70;;;2.00;;
13660;SDS011;6903;49.480;11.102;2023-04-03T14:13:23;3.10;;;1.97;;
13660;SDS011;6903;49.480;11.102;2023-04-03T14:15:48;3.30;;;1.77;;
13660;SDS011;6903;49.480;11.102;2023-04-03T14:18:18;2.73;;;1.90;;
13660;SDS011;6903;49.480;11.102;2023-04-03T14:20:45;3.53;;;1.83;;
13660;SDS011;6903;49.480;11.102;2023-04-03T14:23:11;3.20;;;1.83;;
13660;SDS011;6903;49.480;11.102;2023-04-03T14:25:37;2.23;;;1.70;;
13660;SDS011;6903;49.480;11.102;2023-04-03T14:28:14;2.37;;;1.80;;
13660;SDS011;6903;49.480;11.102;2023-04-03T14:30:41;3.77;;;2.07;;
13660;SDS011;6903;49.480;11.102;2023-04-03T14:33:09;2.43;;;1.73;;
13660;SDS011;6903;49.480;11.102;2023-04-03T14:35:40;2.80;;;1.70;;
13660;SDS011;6903;49.480;11.102;2023-04-03T14:38:12;3.70;;;1.97;;
13660;SDS011;6903;49.480;11.102;2023-04-03T14:40:46;1.97;;;1.77;;
13660;SDS011;6903;49.480;11.102;2023-04-03T14:43:12;2.83;;;1.70;;
13660;SDS011;6903;49.480;11.102;2023-04-03T14:45:38;4.20;;;1.90;;
13660;SDS011;6903;49.480;11.102;2023-04-03T14:48:03;3.47;;;1.67;;
13660;SDS011;6903;49.480;11.102;2023-04-03T14:50:29;2.30;;;1.83;;
13660;SDS011;6903;49.480;11.102;2023-04-03T14:52:55;2.17;;;1.63;;
13660;SDS011;6903;49.480;11.102;2023-04-03T14:55:23;4.67;;;1.80;;
13660;SDS011;6903;49.480;11.102;2023-04-03T14:57:50;2.77;;;1.73;;
13660;SDS011;6903;49.480;11.102;2023-04-03T15:00:18;2.20;;;1.97;;
13660;SDS011;6903;49.480;11.102;2023-04-03T15:02:45;2.07;;;1.67;;
13660;SDS011;6903;49.480;11.102;2023-04-03T15:05:12;2.97;;;1.77;;
13660;SDS011;6903;49.480;11.102;2023-04-03T15:07:42;4.00;;;2.00;;
13660;SDS011;6903;49.480;11.102;2023-04-03T15:12:48;1.80;;;1.23;;
13660;SDS011;6903;49.480;11.102;2023-04-03T15:15:15;5.43;;;2.27;;
13660;SDS011;6903;49.480;11.102;2023-04-03T15:17:41;2.67;;;1.80;;
13660;SDS011;6903;49.480;11.102;2023-04-03T15:20:15;3.57;;;1.83;;
13660;SDS011;6903;49.480;11.102;2023-04-03T15:22:43;2.87;;;1.90;;
13660;SDS011;6903;49.480;11.102;2023-04-03T15:25:09;1.60;;;1.37;;
13660;SDS011;6903;49.480;11.102;2023-04-03T15:27:35;4.90;;;1.90;;
13660;SDS011;6903;49.480;11.102;2023-04-03T15:30:01;4.40;;;2.17;;
13660;SDS011;6903;49.480;11.102;2023-04-03T15:32:26;2.23;;;1.40;;
13660;SDS011;6903;49.480;11.102;2023-04-03T15:34:51;2.70;;;1.93;;
13660;SDS011;6903;49.480;11.102;2023-04-03T15:37:18;2.17;;;1.80;;
13660;SDS011;6903;49.480;11.102;2023-04-03T15:39:44;3.47;;;2.43;;
13660;SDS011;6903;49.480;11.102;2023-04-03T15:42:09;3.13;;;2.07;;
13660;SDS011;6903;49.480;11.102;2023-04-03T15:44:34;2.83;;;1.93;;
13660;SDS011;6903;49.480;11.102;2023-04-03T15:47:00;4.50;;;2.30;;
13660;SDS011;6903;49.480;11.102;2023-04-03T15:49:26;2.57;;;1.70;;
13660;SDS011;6903;49.480;11.102;2023-04-03T15:51:52;2.20;;;1.60;;
13660;SDS011;6903;49.480;11.102;2023-04-03T15:54:17;2.07;;;1.80;;
13660;SDS011;6903;49.480;11.102;2023-04-03T15:56:43;2.90;;;2.00;;
13660;SDS011;6903;49.480;11.102;2023-04-03T15:59:08;3.50;;;1.80;;
13660;SDS011;6903;49.480;11.102;2023-04-03T16:01:33;2.80;;;1.90;;
13660;SDS011;6903;49.480;11.102;2023-04-03T16:03:59;2.40;;;1.90;;
13660;SDS011;6903;49.480;11.102;2023-04-03T16:06:24;2.17;;;1.90;;
13660;SDS011;6903;49.480;11.102;2023-04-03T16:08:50;3.33;;;1.77;;
13660;SDS011;6903;49.480;11.102;2023-04-03T16:11:16;3.23;;;1.57;;
13660;SDS011;6903;49.480;11.102;2023-04-03T16:13:41;2.30;;;1.87;;
13660;SDS011;6903;49.480;11.102;2023-04-03T16:16:07;2.07;;;1.60;;
13660;SDS011;6903;49.480;11.102;2023-04-03T16:18:33;2.77;;;2.23;;